Capitol Logistics 7320

Operating for MZN



KBWI
Baltimore/Washington International Thurgood Marshall Airport
Baltimore, Maryland
KRFD
Chicago/Rockford International Airport
Rockford, Illinois

Activity Log

Date Flight Route Aircraft Duration
04/17/2021 CPX7320 TERPZ7 JERES J211 HAGUD J60 DJB J34 ALPHE J70 PMM RFD B752 1h 57m
04/08/2021 CPX7320 TERPZ7 JERES J211 HAGUD J60 DJB J34 ALPHE J70 PMM RFD B763 1h 56m

Route Details

Aircraft Information
Primary: Boeing 767-300BDSF
Backup: Boeing 757-200SF
Route Data
Distance: 595nm
Duration: 1h 39m
Recm'd Route: TERPZ7 JERES J211 HAGUD J60 DJB J34 ALPHE J70 PMM RFD
Origin Wx: KBWI 180254Z 00000KT 10SM FEW110 SCT200 10/03 A2986 RMK AO2 SLP111 T01000033 51012
Dest. Wx: KRFD 180254Z 11005KT 10SM BKN250 08/M01 A2998 RMK AO2 SLP155 T00781006 53008
Notes: